Appleton, Minnesota
Current Conditions -  °F | °C
As of 2:35 PM on Monday 22 Dec 2014 (Local Time) from KAQP Reporting Station
Drizzle Drizzle  
Wind Chill: 29°   Ceiling: 600
Heat Index: 37°   Visibility: 4mi
Dew Point: 36°   Wind: 15mph
Humidity: 93%   Direction: 120°ESE
Pressure: 29.46"   Gusts: 20mph
Location:  45.2°N, 96.02°W
Report Text: KAQP 222035Z AUTO 12013G17KT 4SM -DZ OVC006 03/02 A2946 RMK AO2
Loading
Personal Weather Stations






























Interactive Weather Map New forecast layout! Learn more

10-Day Weather Forecast

Advertisements
Track Severe Weather on mobile